sensor_id;sensor_type;location;lat;lon;timestamp;P1;durP1;ratioP1;P2;durP2;ratioP2
18610;SDS011;9435;52.122;5.502;2022-10-16T00:01:22;11.40;;;3.03;;
18610;SDS011;9435;52.122;5.502;2022-10-16T00:03:50;5.43;;;2.97;;
18610;SDS011;9435;52.122;5.502;2022-10-16T00:06:18;9.65;;;3.25;;
18610;SDS011;9435;52.122;5.502;2022-10-16T00:08:47;8.32;;;3.00;;
18610;SDS011;9435;52.122;5.502;2022-10-16T00:11:15;8.40;;;3.10;;
18610;SDS011;9435;52.122;5.502;2022-10-16T00:13:44;9.45;;;3.05;;
18610;SDS011;9435;52.122;5.502;2022-10-16T00:16:13;9.18;;;3.10;;
18610;SDS011;9435;52.122;5.502;2022-10-16T00:18:43;8.35;;;3.20;;
18610;SDS011;9435;52.122;5.502;2022-10-16T00:21:11;8.80;;;3.63;;
18610;SDS011;9435;52.122;5.502;2022-10-16T00:23:39;9.30;;;3.15;;
18610;SDS011;9435;52.122;5.502;2022-10-16T00:26:08;10.02;;;3.22;;
18610;SDS011;9435;52.122;5.502;2022-10-16T00:28:36;8.98;;;3.60;;
18610;SDS011;9435;52.122;5.502;2022-10-16T00:31:03;9.25;;;3.60;;
18610;SDS011;9435;52.122;5.502;2022-10-16T00:33:31;9.45;;;3.25;;
18610;SDS011;9435;52.122;5.502;2022-10-16T00:35:59;6.95;;;3.30;;
18610;SDS011;9435;52.122;5.502;2022-10-16T00:38:27;10.70;;;3.38;;
18610;SDS011;9435;52.122;5.502;2022-10-16T00:40:58;8.85;;;3.67;;
18610;SDS011;9435;52.122;5.502;2022-10-16T00:43:36;11.07;;;4.00;;
18610;SDS011;9435;52.122;5.502;2022-10-16T00:46:13;5.57;;;3.25;;
18610;SDS011;9435;52.122;5.502;2022-10-16T00:48:43;8.80;;;4.07;;
18610;SDS011;9435;52.122;5.502;2022-10-16T00:51:17;8.93;;;3.80;;
18610;SDS011;9435;52.122;5.502;2022-10-16T00:53:57;8.85;;;4.00;;
18610;SDS011;9435;52.122;5.502;2022-10-16T00:56:25;11.95;;;3.53;;
18610;SDS011;9435;52.122;5.502;2022-10-16T00:58:52;9.30;;;3.85;;
18610;SDS011;9435;52.122;5.502;2022-10-16T01:01:19;7.75;;;3.70;;
18610;SDS011;9435;52.122;5.502;2022-10-16T01:03:46;5.72;;;3.30;;
18610;SDS011;9435;52.122;5.502;2022-10-16T01:06:21;8.52;;;3.50;;
18610;SDS011;9435;52.122;5.502;2022-10-16T01:08:57;5.57;;;3.05;;
18610;SDS011;9435;52.122;5.502;2022-10-16T01:11:36;7.20;;;3.40;;
18610;SDS011;9435;52.122;5.502;2022-10-16T01:14:11;12.35;;;3.50;;
18610;SDS011;9435;52.122;5.502;2022-10-16T01:16:59;7.57;;;3.20;;
18610;SDS011;9435;52.122;5.502;2022-10-16T01:22:35;9.40;;;3.03;;
18610;SDS011;9435;52.122;5.502;2022-10-16T01:25:09;9.98;;;3.10;;
18610;SDS011;9435;52.122;5.502;2022-10-16T01:27:43;7.18;;;2.78;;
18610;SDS011;9435;52.122;5.502;2022-10-16T01:30:14;6.18;;;2.92;;
18610;SDS011;9435;52.122;5.502;2022-10-16T01:32:45;7.35;;;2.90;;
18610;SDS011;9435;52.122;5.502;2022-10-16T01:35:17;6.68;;;2.85;;
18610;SDS011;9435;52.122;5.502;2022-10-16T01:37:48;9.93;;;2.88;;
18610;SDS011;9435;52.122;5.502;2022-10-16T01:40:19;6.05;;;3.00;;
18610;SDS011;9435;52.122;5.502;2022-10-16T01:42:49;6.03;;;2.75;;
18610;SDS011;9435;52.122;5.502;2022-10-16T01:45:19;6.80;;;3.03;;
18610;SDS011;9435;52.122;5.502;2022-10-16T01:47:47;5.43;;;3.03;;
18610;SDS011;9435;52.122;5.502;2022-10-16T01:50:18;6.85;;;3.10;;
18610;SDS011;9435;52.122;5.502;2022-10-16T01:52:47;7.07;;;3.10;;
18610;SDS011;9435;52.122;5.502;2022-10-16T01:55:17;6.10;;;2.95;;
18610;SDS011;9435;52.122;5.502;2022-10-16T01:57:50;7.25;;;3.10;;
18610;SDS011;9435;52.122;5.502;2022-10-16T02:00:20;7.15;;;2.90;;
18610;SDS011;9435;52.122;5.502;2022-10-16T02:02:49;5.63;;;3.30;;
18610;SDS011;9435;52.122;5.502;2022-10-16T02:05:20;5.50;;;3.20;;
18610;SDS011;9435;52.122;5.502;2022-10-16T02:07:50;6.45;;;3.13;;
18610;SDS011;9435;52.122;5.502;2022-10-16T02:10:17;5.78;;;3.22;;
18610;SDS011;9435;52.122;5.502;2022-10-16T02:12:45;6.80;;;3.30;;
18610;SDS011;9435;52.122;5.502;2022-10-16T02:15:18;8.00;;;3.30;;
18610;SDS011;9435;52.122;5.502;2022-10-16T02:17:45;5.70;;;3.00;;
18610;SDS011;9435;52.122;5.502;2022-10-16T02:20:12;4.93;;;3.20;;
18610;SDS011;9435;52.122;5.502;2022-10-16T02:22:40;5.88;;;3.35;;
18610;SDS011;9435;52.122;5.502;2022-10-16T02:25:12;6.30;;;3.08;;
18610;SDS011;9435;52.122;5.502;2022-10-16T02:27:45;7.55;;;3.45;;
18610;SDS011;9435;52.122;5.502;2022-10-16T02:30:21;7.30;;;3.90;;
18610;SDS011;9435;52.122;5.502;2022-10-16T02:32:51;7.43;;;4.13;;
18610;SDS011;9435;52.122;5.502;2022-10-16T02:35:20;12.38;;;4.75;;
18610;SDS011;9435;52.122;5.502;2022-10-16T02:37:49;9.85;;;4.72;;
18610;SDS011;9435;52.122;5.502;2022-10-16T02:40:17;7.60;;;3.88;;
18610;SDS011;9435;52.122;5.502;2022-10-16T02:42:49;7.68;;;4.05;;
18610;SDS011;9435;52.122;5.502;2022-10-16T02:45:17;6.13;;;3.97;;
18610;SDS011;9435;52.122;5.502;2022-10-16T02:47:46;6.68;;;3.65;;
18610;SDS011;9435;52.122;5.502;2022-10-16T02:50:13;8.77;;;3.55;;
18610;SDS011;9435;52.122;5.502;2022-10-16T02:52:40;6.25;;;3.35;;
18610;SDS011;9435;52.122;5.502;2022-10-16T02:55:08;6.13;;;3.65;;
18610;SDS011;9435;52.122;5.502;2022-10-16T02:57:35;7.13;;;3.17;;
18610;SDS011;9435;52.122;5.502;2022-10-16T03:00:04;7.88;;;3.05;;
18610;SDS011;9435;52.122;5.502;2022-10-16T03:02:33;5.28;;;3.17;;
18610;SDS011;9435;52.122;5.502;2022-10-16T03:05:00;6.00;;;3.40;;
18610;SDS011;9435;52.122;5.502;2022-10-16T03:07:27;7.30;;;3.42;;
18610;SDS011;9435;52.122;5.502;2022-10-16T03:09:54;6.72;;;3.40;;
18610;SDS011;9435;52.122;5.502;2022-10-16T03:12:21;5.88;;;3.58;;
18610;SDS011;9435;52.122;5.502;2022-10-16T03:14:48;8.90;;;3.70;;
18610;SDS011;9435;52.122;5.502;2022-10-16T03:17:15;6.30;;;3.38;;
18610;SDS011;9435;52.122;5.502;2022-10-16T03:19:44;8.18;;;3.60;;
18610;SDS011;9435;52.122;5.502;2022-10-16T03:22:11;5.53;;;3.10;;
18610;SDS011;9435;52.122;5.502;2022-10-16T03:24:38;8.02;;;3.20;;
18610;SDS011;9435;52.122;5.502;2022-10-16T03:27:05;5.35;;;3.17;;
18610;SDS011;9435;52.122;5.502;2022-10-16T03:29:32;8.27;;;3.50;;
18610;SDS011;9435;52.122;5.502;2022-10-16T03:31:59;5.13;;;3.25;;
18610;SDS011;9435;52.122;5.502;2022-10-16T03:34:27;5.63;;;3.05;;
18610;SDS011;9435;52.122;5.502;2022-10-16T03:36:55;7.53;;;3.20;;
18610;SDS011;9435;52.122;5.502;2022-10-16T03:39:22;6.50;;;3.28;;
18610;SDS011;9435;52.122;5.502;2022-10-16T03:41:49;5.97;;;3.17;;
18610;SDS011;9435;52.122;5.502;2022-10-16T03:44:16;8.88;;;3.10;;
18610;SDS011;9435;52.122;5.502;2022-10-16T03:46:43;6.55;;;3.20;;
18610;SDS011;9435;52.122;5.502;2022-10-16T03:49:10;6.78;;;3.15;;
18610;SDS011;9435;52.122;5.502;2022-10-16T03:51:37;6.35;;;2.95;;
18610;SDS011;9435;52.122;5.502;2022-10-16T03:54:05;4.95;;;2.80;;
18610;SDS011;9435;52.122;5.502;2022-10-16T03:56:32;4.97;;;3.00;;
18610;SDS011;9435;52.122;5.502;2022-10-16T03:58:59;4.13;;;2.80;;
18610;SDS011;9435;52.122;5.502;2022-10-16T04:01:26;4.13;;;2.50;;
18610;SDS011;9435;52.122;5.502;2022-10-16T04:03:53;5.43;;;2.92;;
18610;SDS011;9435;52.122;5.502;2022-10-16T04:06:20;7.25;;;2.97;;
18610;SDS011;9435;52.122;5.502;2022-10-16T04:08:47;7.80;;;2.80;;
18610;SDS011;9435;52.122;5.502;2022-10-16T04:11:15;6.38;;;2.58;;
18610;SDS011;9435;52.122;5.502;2022-10-16T04:13:42;5.30;;;2.78;;
18610;SDS011;9435;52.122;5.502;2022-10-16T04:16:09;5.32;;;2.70;;
18610;SDS011;9435;52.122;5.502;2022-10-16T04:18:36;4.00;;;2.50;;
18610;SDS011;9435;52.122;5.502;2022-10-16T04:21:03;6.18;;;2.78;;
18610;SDS011;9435;52.122;5.502;2022-10-16T04:23:30;6.65;;;2.40;;
18610;SDS011;9435;52.122;5.502;2022-10-16T04:25:57;7.70;;;2.85;;
18610;SDS011;9435;52.122;5.502;2022-10-16T04:28:26;7.28;;;2.50;;
18610;SDS011;9435;52.122;5.502;2022-10-16T04:30:53;6.68;;;2.80;;
18610;SDS011;9435;52.122;5.502;2022-10-16T04:33:21;4.40;;;2.40;;
18610;SDS011;9435;52.122;5.502;2022-10-16T04:35:48;4.10;;;2.45;;
18610;SDS011;9435;52.122;5.502;2022-10-16T04:38:21;4.88;;;2.50;;
18610;SDS011;9435;52.122;5.502;2022-10-16T04:40:48;8.48;;;2.60;;
18610;SDS011;9435;52.122;5.502;2022-10-16T04:43:15;6.53;;;2.63;;
18610;SDS011;9435;52.122;5.502;2022-10-16T04:45:44;6.18;;;2.50;;
18610;SDS011;9435;52.122;5.502;2022-10-16T04:48:11;4.43;;;2.40;;
18610;SDS011;9435;52.122;5.502;2022-10-16T04:50:38;5.28;;;2.15;;
18610;SDS011;9435;52.122;5.502;2022-10-16T04:53:05;5.28;;;2.50;;
18610;SDS011;9435;52.122;5.502;2022-10-16T04:55:32;6.32;;;2.50;;
18610;SDS011;9435;52.122;5.502;2022-10-16T04:57:59;5.95;;;2.75;;
18610;SDS011;9435;52.122;5.502;2022-10-16T05:00:26;5.93;;;2.60;;
18610;SDS011;9435;52.122;5.502;2022-10-16T05:02:55;4.15;;;2.58;;
18610;SDS011;9435;52.122;5.502;2022-10-16T05:05:22;7.47;;;2.55;;
18610;SDS011;9435;52.122;5.502;2022-10-16T05:07:49;5.05;;;2.42;;
18610;SDS011;9435;52.122;5.502;2022-10-16T05:10:16;5.75;;;2.58;;
18610;SDS011;9435;52.122;5.502;2022-10-16T05:12:43;6.35;;;2.53;;
18610;SDS011;9435;52.122;5.502;2022-10-16T05:15:10;4.63;;;2.75;;
18610;SDS011;9435;52.122;5.502;2022-10-16T05:17:37;5.78;;;2.60;;
18610;SDS011;9435;52.122;5.502;2022-10-16T05:20:06;6.32;;;2.85;;
18610;SDS011;9435;52.122;5.502;2022-10-16T05:22:33;5.32;;;2.80;;
18610;SDS011;9435;52.122;5.502;2022-10-16T05:25:00;6.43;;;2.80;;
18610;SDS011;9435;52.122;5.502;2022-10-16T05:27:27;7.88;;;3.20;;
18610;SDS011;9435;52.122;5.502;2022-10-16T05:29:54;5.88;;;3.00;;
18610;SDS011;9435;52.122;5.502;2022-10-16T05:32:21;7.65;;;3.50;;
18610;SDS011;9435;52.122;5.502;2022-10-16T05:34:48;9.65;;;3.60;;
18610;SDS011;9435;52.122;5.502;2022-10-16T05:37:18;6.15;;;3.25;;
18610;SDS011;9435;52.122;5.502;2022-10-16T05:39:45;5.72;;;3.70;;
18610;SDS011;9435;52.122;5.502;2022-10-16T05:42:12;9.73;;;4.10;;
18610;SDS011;9435;52.122;5.502;2022-10-16T05:44:39;9.48;;;4.30;;
18610;SDS011;9435;52.122;5.502;2022-10-16T05:47:06;7.35;;;4.00;;
18610;SDS011;9435;52.122;5.502;2022-10-16T05:49:33;9.63;;;4.68;;
18610;SDS011;9435;52.122;5.502;2022-10-16T05:52:00;8.70;;;4.85;;
18610;SDS011;9435;52.122;5.502;2022-10-16T05:54:28;11.02;;;4.82;;
18610;SDS011;9435;52.122;5.502;2022-10-16T05:56:55;10.63;;;5.72;;
18610;SDS011;9435;52.122;5.502;2022-10-16T05:59:22;14.23;;;6.25;;
18610;SDS011;9435;52.122;5.502;2022-10-16T06:01:49;13.57;;;6.50;;
18610;SDS011;9435;52.122;5.502;2022-10-16T06:04:17;18.70;;;7.47;;
18610;SDS011;9435;52.122;5.502;2022-10-16T06:06:44;15.20;;;7.50;;
18610;SDS011;9435;52.122;5.502;2022-10-16T06:09:11;13.60;;;7.70;;
18610;SDS011;9435;52.122;5.502;2022-10-16T06:11:39;18.50;;;8.40;;
18610;SDS011;9435;52.122;5.502;2022-10-16T06:14:07;17.95;;;8.70;;
18610;SDS011;9435;52.122;5.502;2022-10-16T06:16:35;15.23;;;8.57;;
18610;SDS011;9435;52.122;5.502;2022-10-16T06:19:03;16.80;;;8.95;;
18610;SDS011;9435;52.122;5.502;2022-10-16T06:21:33;17.67;;;8.98;;
18610;SDS011;9435;52.122;5.502;2022-10-16T06:24:00;15.95;;;8.93;;
18610;SDS011;9435;52.122;5.502;2022-10-16T06:26:28;18.00;;;8.90;;
18610;SDS011;9435;52.122;5.502;2022-10-16T06:28:58;14.88;;;8.55;;
18610;SDS011;9435;52.122;5.502;2022-10-16T06:31:26;15.75;;;8.70;;
18610;SDS011;9435;52.122;5.502;2022-10-16T06:33:56;13.75;;;8.35;;
18610;SDS011;9435;52.122;5.502;2022-10-16T06:36:23;16.73;;;8.40;;
18610;SDS011;9435;52.122;5.502;2022-10-16T06:38:51;17.02;;;8.60;;
18610;SDS011;9435;52.122;5.502;2022-10-16T06:41:18;19.33;;;8.20;;
18610;SDS011;9435;52.122;5.502;2022-10-16T06:43:47;17.27;;;8.20;;
18610;SDS011;9435;52.122;5.502;2022-10-16T06:46:16;13.95;;;7.45;;
18610;SDS011;9435;52.122;5.502;2022-10-16T06:48:44;15.23;;;7.45;;
18610;SDS011;9435;52.122;5.502;2022-10-16T06:51:12;14.65;;;7.10;;
18610;SDS011;9435;52.122;5.502;2022-10-16T06:53:41;12.95;;;6.95;;
18610;SDS011;9435;52.122;5.502;2022-10-16T06:56:10;12.55;;;6.68;;
18610;SDS011;9435;52.122;5.502;2022-10-16T06:58:38;14.80;;;6.13;;
18610;SDS011;9435;52.122;5.502;2022-10-16T07:01:06;12.90;;;6.40;;
18610;SDS011;9435;52.122;5.502;2022-10-16T07:03:37;12.02;;;5.85;;
18610;SDS011;9435;52.122;5.502;2022-10-16T07:06:05;9.43;;;5.00;;
18610;SDS011;9435;52.122;5.502;2022-10-16T07:08:34;11.13;;;4.82;;
18610;SDS011;9435;52.122;5.502;2022-10-16T07:11:02;13.88;;;5.70;;
18610;SDS011;9435;52.122;5.502;2022-10-16T07:13:32;9.70;;;4.57;;
18610;SDS011;9435;52.122;5.502;2022-10-16T07:16:03;9.00;;;4.85;;
18610;SDS011;9435;52.122;5.502;2022-10-16T07:18:31;8.18;;;4.40;;
18610;SDS011;9435;52.122;5.502;2022-10-16T07:21:04;9.30;;;4.25;;
18610;SDS011;9435;52.122;5.502;2022-10-16T07:23:31;14.15;;;3.92;;
18610;SDS011;9435;52.122;5.502;2022-10-16T07:25:59;7.88;;;3.80;;
18610;SDS011;9435;52.122;5.502;2022-10-16T07:28:26;8.23;;;4.05;;
18610;SDS011;9435;52.122;5.502;2022-10-16T07:30:54;7.95;;;3.70;;
18610;SDS011;9435;52.122;5.502;2022-10-16T07:33:21;8.48;;;3.63;;
18610;SDS011;9435;52.122;5.502;2022-10-16T07:35:49;7.47;;;3.50;;
18610;SDS011;9435;52.122;5.502;2022-10-16T07:38:18;6.57;;;3.50;;
18610;SDS011;9435;52.122;5.502;2022-10-16T07:40:46;7.80;;;3.40;;
18610;SDS011;9435;52.122;5.502;2022-10-16T07:43:14;7.57;;;3.50;;
18610;SDS011;9435;52.122;5.502;2022-10-16T07:45:47;5.97;;;3.38;;
18610;SDS011;9435;52.122;5.502;2022-10-16T07:48:15;8.07;;;3.40;;
18610;SDS011;9435;52.122;5.502;2022-10-16T07:50:43;7.85;;;3.35;;
18610;SDS011;9435;52.122;5.502;2022-10-16T07:53:10;8.15;;;3.50;;
18610;SDS011;9435;52.122;5.502;2022-10-16T07:55:39;6.78;;;3.60;;
18610;SDS011;9435;52.122;5.502;2022-10-16T07:58:06;8.60;;;3.50;;
18610;SDS011;9435;52.122;5.502;2022-10-16T08:00:35;7.35;;;3.67;;
18610;SDS011;9435;52.122;5.502;2022-10-16T08:03:03;7.65;;;3.70;;
18610;SDS011;9435;52.122;5.502;2022-10-16T08:05:31;7.10;;;3.45;;
18610;SDS011;9435;52.122;5.502;2022-10-16T08:07:59;6.97;;;3.38;;
18610;SDS011;9435;52.122;5.502;2022-10-16T08:10:27;8.93;;;3.78;;
18610;SDS011;9435;52.122;5.502;2022-10-16T08:12:58;9.25;;;3.95;;
18610;SDS011;9435;52.122;5.502;2022-10-16T08:15:25;8.05;;;3.65;;
18610;SDS011;9435;52.122;5.502;2022-10-16T08:17:55;5.63;;;3.20;;
18610;SDS011;9435;52.122;5.502;2022-10-16T08:20:23;9.20;;;3.40;;
18610;SDS011;9435;52.122;5.502;2022-10-16T08:22:51;10.07;;;3.20;;
18610;SDS011;9435;52.122;5.502;2022-10-16T08:25:19;7.32;;;3.17;;
18610;SDS011;9435;52.122;5.502;2022-10-16T08:27:46;6.57;;;3.60;;
18610;SDS011;9435;52.122;5.502;2022-10-16T08:30:14;7.50;;;3.47;;
18610;SDS011;9435;52.122;5.502;2022-10-16T08:32:42;5.60;;;3.00;;
18610;SDS011;9435;52.122;5.502;2022-10-16T08:35:09;6.93;;;3.05;;
18610;SDS011;9435;52.122;5.502;2022-10-16T08:37:39;6.45;;;2.72;;
18610;SDS011;9435;52.122;5.502;2022-10-16T08:40:07;7.80;;;2.97;;
18610;SDS011;9435;52.122;5.502;2022-10-16T08:42:47;5.72;;;3.05;;
18610;SDS011;9435;52.122;5.502;2022-10-16T08:45:47;6.18;;;2.80;;
18610;SDS011;9435;52.122;5.502;2022-10-16T08:48:27;7.40;;;3.17;;
18610;SDS011;9435;52.122;5.502;2022-10-16T08:51:00;6.40;;;2.85;;
18610;SDS011;9435;52.122;5.502;2022-10-16T08:53:30;6.03;;;2.70;;
18610;SDS011;9435;52.122;5.502;2022-10-16T08:56:04;10.02;;;2.60;;
18610;SDS011;9435;52.122;5.502;2022-10-16T08:58:31;7.45;;;2.50;;
18610;SDS011;9435;52.122;5.502;2022-10-16T09:01:00;8.63;;;2.67;;
18610;SDS011;9435;52.122;5.502;2022-10-16T09:03:40;10.82;;;2.65;;
18610;SDS011;9435;52.122;5.502;2022-10-16T09:06:25;11.35;;;2.63;;
18610;SDS011;9435;52.122;5.502;2022-10-16T09:09:14;10.55;;;2.58;;
18610;SDS011;9435;52.122;5.502;2022-10-16T09:12:08;9.63;;;2.30;;
18610;SDS011;9435;52.122;5.502;2022-10-16T09:14:45;11.57;;;2.42;;
18610;SDS011;9435;52.122;5.502;2022-10-16T09:17:37;7.35;;;2.53;;
18610;SDS011;9435;52.122;5.502;2022-10-16T09:20:17;10.32;;;1.98;;
18610;SDS011;9435;52.122;5.502;2022-10-16T09:22:47;11.48;;;2.30;;
18610;SDS011;9435;52.122;5.502;2022-10-16T09:25:15;11.57;;;2.30;;
18610;SDS011;9435;52.122;5.502;2022-10-16T09:27:44;10.32;;;2.08;;
18610;SDS011;9435;52.122;5.502;2022-10-16T09:30:13;12.13;;;2.40;;
18610;SDS011;9435;52.122;5.502;2022-10-16T09:32:44;8.63;;;2.30;;
18610;SDS011;9435;52.122;5.502;2022-10-16T09:35:15;8.45;;;1.80;;
18610;SDS011;9435;52.122;5.502;2022-10-16T09:37:45;11.70;;;2.10;;
18610;SDS011;9435;52.122;5.502;2022-10-16T09:40:24;9.02;;;2.88;;
18610;SDS011;9435;52.122;5.502;2022-10-16T09:42:52;10.70;;;2.13;;
18610;SDS011;9435;52.122;5.502;2022-10-16T09:45:29;8.65;;;2.45;;
18610;SDS011;9435;52.122;5.502;2022-10-16T09:48:00;10.25;;;2.80;;
18610;SDS011;9435;52.122;5.502;2022-10-16T09:50:36;8.50;;;2.65;;
18610;SDS011;9435;52.122;5.502;2022-10-16T09:53:04;14.32;;;2.55;;
18610;SDS011;9435;52.122;5.502;2022-10-16T09:55:32;7.43;;;2.10;;
18610;SDS011;9435;52.122;5.502;2022-10-16T09:57:59;8.43;;;2.30;;
18610;SDS011;9435;52.122;5.502;2022-10-16T10:00:26;11.80;;;2.60;;
18610;SDS011;9435;52.122;5.502;2022-10-16T10:02:55;10.93;;;2.47;;
18610;SDS011;9435;52.122;5.502;2022-10-16T10:05:24;7.22;;;2.20;;
18610;SDS011;9435;52.122;5.502;2022-10-16T10:07:56;9.60;;;2.33;;
18610;SDS011;9435;52.122;5.502;2022-10-16T10:10:25;10.98;;;2.40;;
18610;SDS011;9435;52.122;5.502;2022-10-16T10:12:54;9.02;;;2.45;;
18610;SDS011;9435;52.122;5.502;2022-10-16T10:15:21;11.65;;;2.20;;
18610;SDS011;9435;52.122;5.502;2022-10-16T10:17:50;8.02;;;1.95;;
18610;SDS011;9435;52.122;5.502;2022-10-16T10:20:35;9.35;;;2.08;;
18610;SDS011;9435;52.122;5.502;2022-10-16T10:23:13;13.00;;;2.60;;
18610;SDS011;9435;52.122;5.502;2022-10-16T10:25:49;6.95;;;1.95;;
18610;SDS011;9435;52.122;5.502;2022-10-16T10:31:17;12.00;;;2.10;;
18610;SDS011;9435;52.122;5.502;2022-10-16T10:33:49;14.52;;;2.08;;
18610;SDS011;9435;52.122;5.502;2022-10-16T10:36:25;10.77;;;1.80;;
18610;SDS011;9435;52.122;5.502;2022-10-16T10:38:59;9.43;;;2.05;;
18610;SDS011;9435;52.122;5.502;2022-10-16T10:41:39;9.32;;;2.20;;
18610;SDS011;9435;52.122;5.502;2022-10-16T10:44:26;13.50;;;2.03;;
18610;SDS011;9435;52.122;5.502;2022-10-16T10:47:15;11.75;;;1.90;;
18610;SDS011;9435;52.122;5.502;2022-10-16T10:49:51;10.40;;;2.20;;
18610;SDS011;9435;52.122;5.502;2022-10-16T10:52:29;16.58;;;2.28;;
18610;SDS011;9435;52.122;5.502;2022-10-16T10:55:10;7.70;;;1.80;;
18610;SDS011;9435;52.122;5.502;2022-10-16T10:57:52;11.02;;;2.30;;
18610;SDS011;9435;52.122;5.502;2022-10-16T11:00:37;15.60;;;2.15;;
18610;SDS011;9435;52.122;5.502;2022-10-16T11:03:13;12.77;;;2.05;;
18610;SDS011;9435;52.122;5.502;2022-10-16T11:05:54;9.65;;;2.08;;
18610;SDS011;9435;52.122;5.502;2022-10-16T11:08:27;10.25;;;1.80;;
18610;SDS011;9435;52.122;5.502;2022-10-16T11:11:00;9.90;;;1.70;;
18610;SDS011;9435;52.122;5.502;2022-10-16T11:13:31;12.73;;;2.78;;
18610;SDS011;9435;52.122;5.502;2022-10-16T11:16:02;11.57;;;1.88;;
18610;SDS011;9435;52.122;5.502;2022-10-16T11:18:40;7.43;;;1.70;;
18610;SDS011;9435;52.122;5.502;2022-10-16T11:21:14;9.35;;;1.80;;
18610;SDS011;9435;52.122;5.502;2022-10-16T11:23:46;14.63;;;2.28;;
18610;SDS011;9435;52.122;5.502;2022-10-16T11:26:18;11.82;;;2.08;;
18610;SDS011;9435;52.122;5.502;2022-10-16T11:28:48;12.43;;;1.75;;
18610;SDS011;9435;52.122;5.502;2022-10-16T11:31:17;11.25;;;1.98;;
18610;SDS011;9435;52.122;5.502;2022-10-16T11:33:51;13.05;;;1.48;;
18610;SDS011;9435;52.122;5.502;2022-10-16T11:36:27;12.63;;;1.90;;
18610;SDS011;9435;52.122;5.502;2022-10-16T11:39:03;8.93;;;1.80;;
18610;SDS011;9435;52.122;5.502;2022-10-16T11:41:35;12.93;;;1.80;;
18610;SDS011;9435;52.122;5.502;2022-10-16T11:44:16;10.88;;;1.90;;
18610;SDS011;9435;52.122;5.502;2022-10-16T11:46:58;9.43;;;1.40;;
18610;SDS011;9435;52.122;5.502;2022-10-16T11:49:32;8.73;;;1.45;;
18610;SDS011;9435;52.122;5.502;2022-10-16T11:52:01;9.32;;;1.55;;
18610;SDS011;9435;52.122;5.502;2022-10-16T11:54:37;11.30;;;1.40;;
18610;SDS011;9435;52.122;5.502;2022-10-16T11:57:20;12.02;;;1.42;;
18610;SDS011;9435;52.122;5.502;2022-10-16T11:59:50;8.63;;;1.40;;
18610;SDS011;9435;52.122;5.502;2022-10-16T12:05:19;9.65;;;1.20;;
18610;SDS011;9435;52.122;5.502;2022-10-16T12:07:55;7.28;;;1.33;;
18610;SDS011;9435;52.122;5.502;2022-10-16T12:10:29;7.88;;;1.67;;
18610;SDS011;9435;52.122;5.502;2022-10-16T12:13:01;11.35;;;1.80;;
18610;SDS011;9435;52.122;5.502;2022-10-16T12:15:30;9.65;;;1.40;;
18610;SDS011;9435;52.122;5.502;2022-10-16T12:17:58;10.68;;;1.55;;
18610;SDS011;9435;52.122;5.502;2022-10-16T12:20:27;11.52;;;1.88;;
18610;SDS011;9435;52.122;5.502;2022-10-16T12:22:59;7.82;;;1.60;;
18610;SDS011;9435;52.122;5.502;2022-10-16T12:25:30;13.15;;;1.83;;
18610;SDS011;9435;52.122;5.502;2022-10-16T12:28:03;7.57;;;1.63;;
18610;SDS011;9435;52.122;5.502;2022-10-16T12:30:33;8.65;;;1.55;;
18610;SDS011;9435;52.122;5.502;2022-10-16T12:33:02;10.20;;;1.50;;
18610;SDS011;9435;52.122;5.502;2022-10-16T12:35:32;8.95;;;1.48;;
18610;SDS011;9435;52.122;5.502;2022-10-16T12:38:08;9.60;;;1.67;;
18610;SDS011;9435;52.122;5.502;2022-10-16T12:40:44;10.48;;;1.45;;
18610;SDS011;9435;52.122;5.502;2022-10-16T12:43:13;7.00;;;1.30;;
18610;SDS011;9435;52.122;5.502;2022-10-16T12:45:59;13.10;;;1.50;;
18610;SDS011;9435;52.122;5.502;2022-10-16T12:48:27;10.05;;;1.50;;
18610;SDS011;9435;52.122;5.502;2022-10-16T12:50:55;11.55;;;1.20;;
18610;SDS011;9435;52.122;5.502;2022-10-16T12:53:23;9.32;;;1.60;;
18610;SDS011;9435;52.122;5.502;2022-10-16T12:55:57;10.57;;;1.50;;
18610;SDS011;9435;52.122;5.502;2022-10-16T13:01:26;7.70;;;1.30;;
18610;SDS011;9435;52.122;5.502;2022-10-16T13:04:06;9.43;;;1.83;;
18610;SDS011;9435;52.122;5.502;2022-10-16T13:06:55;8.18;;;1.58;;
18610;SDS011;9435;52.122;5.502;2022-10-16T13:12:25;9.27;;;1.63;;
18610;SDS011;9435;52.122;5.502;2022-10-16T13:15:19;15.48;;;1.90;;
18610;SDS011;9435;52.122;5.502;2022-10-16T13:17:56;7.40;;;1.55;;
18610;SDS011;9435;52.122;5.502;2022-10-16T13:20:31;10.63;;;1.50;;
18610;SDS011;9435;52.122;5.502;2022-10-16T13:23:03;9.50;;;1.60;;
18610;SDS011;9435;52.122;5.502;2022-10-16T13:25:43;7.00;;;1.30;;
18610;SDS011;9435;52.122;5.502;2022-10-16T13:28:22;8.27;;;1.33;;
18610;SDS011;9435;52.122;5.502;2022-10-16T13:30:55;10.05;;;1.63;;
18610;SDS011;9435;52.122;5.502;2022-10-16T13:33:29;13.82;;;1.80;;
18610;SDS011;9435;52.122;5.502;2022-10-16T13:35:59;8.25;;;1.50;;
18610;SDS011;9435;52.122;5.502;2022-10-16T13:38:26;10.50;;;1.92;;
18610;SDS011;9435;52.122;5.502;2022-10-16T13:40:56;15.10;;;1.80;;
18610;SDS011;9435;52.122;5.502;2022-10-16T13:43:27;10.02;;;1.60;;
18610;SDS011;9435;52.122;5.502;2022-10-16T13:45:58;10.20;;;1.58;;
18610;SDS011;9435;52.122;5.502;2022-10-16T13:48:27;7.57;;;1.50;;
18610;SDS011;9435;52.122;5.502;2022-10-16T13:50:58;11.57;;;1.48;;
18610;SDS011;9435;52.122;5.502;2022-10-16T13:53:26;6.35;;;1.10;;
18610;SDS011;9435;52.122;5.502;2022-10-16T13:55:53;10.80;;;1.70;;
18610;SDS011;9435;52.122;5.502;2022-10-16T13:58:20;15.00;;;1.90;;
18610;SDS011;9435;52.122;5.502;2022-10-16T14:00:55;10.20;;;1.50;;
18610;SDS011;9435;52.122;5.502;2022-10-16T14:03:24;12.50;;;1.90;;
18610;SDS011;9435;52.122;5.502;2022-10-16T14:05:54;10.55;;;1.55;;
18610;SDS011;9435;52.122;5.502;2022-10-16T14:08:23;6.07;;;1.30;;
18610;SDS011;9435;52.122;5.502;2022-10-16T14:10:53;11.48;;;1.67;;
18610;SDS011;9435;52.122;5.502;2022-10-16T14:13:24;9.88;;;1.85;;
18610;SDS011;9435;52.122;5.502;2022-10-16T14:16:01;8.75;;;1.30;;
18610;SDS011;9435;52.122;5.502;2022-10-16T14:18:32;9.57;;;1.80;;
18610;SDS011;9435;52.122;5.502;2022-10-16T14:21:03;10.60;;;1.50;;
18610;SDS011;9435;52.122;5.502;2022-10-16T14:23:32;9.45;;;1.63;;
18610;SDS011;9435;52.122;5.502;2022-10-16T14:29:00;9.25;;;1.45;;
18610;SDS011;9435;52.122;5.502;2022-10-16T14:31:32;9.30;;;1.60;;
18610;SDS011;9435;52.122;5.502;2022-10-16T14:34:01;7.93;;;1.40;;
18610;SDS011;9435;52.122;5.502;2022-10-16T14:36:28;7.68;;;1.45;;
18610;SDS011;9435;52.122;5.502;2022-10-16T14:39:00;8.40;;;1.83;;
18610;SDS011;9435;52.122;5.502;2022-10-16T14:41:30;7.30;;;1.60;;
18610;SDS011;9435;52.122;5.502;2022-10-16T14:44:00;7.30;;;1.40;;
18610;SDS011;9435;52.122;5.502;2022-10-16T14:46:31;7.05;;;1.42;;
18610;SDS011;9435;52.122;5.502;2022-10-16T14:49:03;6.32;;;1.42;;
18610;SDS011;9435;52.122;5.502;2022-10-16T14:51:39;6.30;;;1.30;;
18610;SDS011;9435;52.122;5.502;2022-10-16T14:54:07;8.13;;;1.50;;
18610;SDS011;9435;52.122;5.502;2022-10-16T14:56:40;10.70;;;1.70;;
18610;SDS011;9435;52.122;5.502;2022-10-16T14:59:14;9.25;;;1.63;;
18610;SDS011;9435;52.122;5.502;2022-10-16T15:01:45;9.27;;;1.60;;
18610;SDS011;9435;52.122;5.502;2022-10-16T15:04:13;6.63;;;1.30;;
18610;SDS011;9435;52.122;5.502;2022-10-16T15:06:41;9.68;;;1.73;;
18610;SDS011;9435;52.122;5.502;2022-10-16T15:09:08;11.88;;;1.58;;
18610;SDS011;9435;52.122;5.502;2022-10-16T15:11:35;9.38;;;1.40;;
18610;SDS011;9435;52.122;5.502;2022-10-16T15:14:03;12.23;;;1.70;;
18610;SDS011;9435;52.122;5.502;2022-10-16T15:16:30;9.13;;;1.60;;
18610;SDS011;9435;52.122;5.502;2022-10-16T15:18:59;9.85;;;1.70;;
18610;SDS011;9435;52.122;5.502;2022-10-16T15:21:26;11.43;;;1.70;;
18610;SDS011;9435;52.122;5.502;2022-10-16T15:23:54;6.82;;;1.25;;
18610;SDS011;9435;52.122;5.502;2022-10-16T15:26:22;6.68;;;1.38;;
18610;SDS011;9435;52.122;5.502;2022-10-16T15:28:50;7.05;;;1.50;;
18610;SDS011;9435;52.122;5.502;2022-10-16T15:31:17;9.13;;;1.95;;
18610;SDS011;9435;52.122;5.502;2022-10-16T15:33:44;10.02;;;1.58;;
18610;SDS011;9435;52.122;5.502;2022-10-16T15:36:19;10.48;;;1.73;;